createdAt,value
2024-03-04T00:00:29.624Z,55.59
2024-03-04T00:03:03.389Z,55.83
2024-03-04T00:05:36.848Z,55.74
2024-03-04T00:08:09.747Z,55.26
2024-03-04T00:10:43.720Z,55.52
2024-03-04T00:13:18.564Z,55.24
2024-03-04T00:15:51.886Z,55.92
2024-03-04T00:18:25.663Z,55.49
2024-03-04T00:20:59.577Z,55.70
2024-03-04T00:23:32.532Z,55.63
2024-03-04T00:26:08.030Z,55.65
2024-03-04T00:28:42.194Z,56.12
2024-03-04T00:31:15.702Z,55.68
2024-03-04T00:33:48.338Z,56.06
2024-03-04T00:36:23.352Z,55.96
2024-03-04T00:38:58.723Z,56.20
2024-03-04T00:41:31.490Z,55.83
2024-03-04T00:44:06.084Z,56.60
2024-03-04T00:46:41.874Z,55.89
2024-03-04T00:49:14.862Z,55.86
2024-03-04T00:51:48.069Z,56.48
2024-03-04T00:54:20.633Z,55.85
2024-03-04T00:56:53.510Z,57.06
2024-03-04T00:59:29.211Z,57.03
2024-03-04T01:02:01.956Z,56.56
2024-03-04T01:04:35.808Z,56.80
2024-03-04T01:07:08.584Z,57.45
2024-03-04T01:09:42.210Z,57.08
2024-03-04T01:12:16.259Z,56.40
2024-03-04T01:14:50.238Z,57.32
2024-03-04T01:17:23.623Z,57.31
2024-03-04T01:19:56.745Z,56.76
2024-03-04T01:22:30.439Z,57.73
2024-03-04T01:25:05.195Z,57.88
2024-03-04T01:27:38.551Z,57.41
2024-03-04T01:30:15.561Z,57.11
2024-03-04T01:32:48.465Z,57.57
2024-03-04T01:35:21.668Z,56.93
2024-03-04T01:37:54.711Z,57.13
2024-03-04T01:40:27.781Z,57.48
2024-03-04T01:43:00.979Z,57.98
2024-03-04T01:45:35.722Z,58.06
2024-03-04T01:48:11.064Z,57.50
2024-03-04T01:50:46.469Z,57.48
2024-03-04T01:53:20.590Z,57.79
2024-03-04T01:55:57.622Z,57.63
2024-03-04T01:58:32.527Z,58.74
2024-03-04T02:01:07.167Z,58.08
2024-03-04T02:03:40.710Z,57.95
2024-03-04T02:06:14.089Z,58.46
2024-03-04T02:08:47.281Z,58.58
2024-03-04T02:11:21.286Z,58.10
2024-03-04T02:13:54.267Z,58.64
2024-03-04T02:16:28.808Z,58.67
2024-03-04T02:19:02.357Z,59.12
2024-03-04T02:21:40.541Z,59.08
2024-03-04T02:24:15.598Z,59.06
2024-03-04T02:26:50.907Z,58.86
2024-03-04T02:29:24.997Z,59.60
2024-03-04T02:31:58.889Z,59.12
2024-03-04T02:34:31.765Z,58.69
2024-03-04T02:37:04.956Z,58.86
2024-03-04T02:39:40.681Z,59.43
2024-03-04T02:42:13.894Z,59.09
2024-03-04T02:44:46.957Z,59.30
2024-03-04T02:47:19.868Z,59.15
2024-03-04T02:49:52.439Z,59.16
2024-03-04T02:52:25.606Z,59.32
2024-03-04T02:55:00.161Z,59.32
2024-03-04T02:57:33.328Z,59.41
2024-03-04T03:00:07.853Z,59.38
2024-03-04T03:02:41.068Z,59.17
2024-03-04T03:05:14.050Z,59.99
2024-03-04T03:07:47.431Z,59.92
2024-03-04T03:10:21.804Z,59.12
2024-03-04T03:12:55.232Z,59.70
2024-03-04T03:15:28.261Z,59.77
2024-03-04T03:18:01.956Z,59.29
2024-03-04T03:20:35.158Z,59.88
2024-03-04T03:23:08.191Z,60.32
2024-03-04T03:25:42.779Z,59.71
2024-03-04T03:28:15.573Z,59.58
2024-03-04T03:30:48.838Z,60.33
2024-03-04T03:33:21.510Z,59.68
2024-03-04T03:35:54.816Z,60.73
2024-03-04T03:38:27.375Z,60.67
2024-03-04T03:41:04.761Z,59.84
2024-03-04T03:43:37.425Z,59.68
2024-03-04T03:46:10.835Z,60.62
2024-03-04T03:48:44.189Z,59.59
2024-03-04T03:51:17.238Z,60.24
2024-03-04T03:53:50.075Z,60.18
2024-03-04T03:56:24.646Z,60.44
2024-03-04T03:58:57.337Z,60.98
2024-03-04T04:01:30.697Z,60.83
2024-03-04T04:04:03.575Z,60.87
2024-03-04T04:06:36.644Z,60.76
2024-03-04T04:09:09.893Z,61.20
2024-03-04T04:11:45.807Z,60.96
2024-03-04T04:14:18.690Z,61.04
2024-03-04T04:16:51.736Z,61.35
2024-03-04T04:19:25.482Z,60.21
2024-03-04T04:21:59.146Z,61.35
2024-03-04T04:24:32.671Z,60.83
2024-03-04T04:27:07.808Z,60.53
2024-03-04T04:29:41.042Z,60.94
2024-03-04T04:32:14.485Z,60.44
2024-03-04T04:34:47.377Z,60.48
2024-03-04T04:37:20.817Z,61.29
2024-03-04T04:39:53.507Z,61.63
2024-03-04T04:42:29.428Z,60.66
2024-03-04T04:45:04.189Z,61.23
2024-03-04T04:47:37.505Z,60.85
2024-03-04T04:50:13.519Z,61.12
2024-03-04T04:52:46.377Z,61.17
2024-03-04T04:55:19.588Z,61.48
2024-03-04T04:57:53.651Z,61.01
2024-03-04T05:00:26.773Z,61.30
2024-03-04T05:02:59.377Z,61.36
2024-03-04T05:05:32.575Z,61.53
2024-03-04T05:08:06.662Z,61.49
2024-03-04T05:10:40.939Z,61.03
2024-03-04T05:13:15.331Z,61.74
2024-03-04T05:15:48.727Z,60.78
2024-03-04T05:18:23.876Z,61.28
2024-03-04T05:20:57.359Z,60.75
2024-03-04T05:23:37.705Z,60.89
2024-03-04T05:26:10.376Z,61.11
2024-03-04T05:28:46.361Z,60.77
2024-03-04T05:31:20.353Z,61.25
2024-03-04T05:33:53.238Z,61.03
2024-03-04T05:36:25.810Z,61.48
2024-03-04T05:38:58.561Z,61.46
2024-03-04T05:41:31.514Z,61.87
2024-03-04T05:44:06.132Z,60.88
2024-03-04T05:46:39.781Z,61.63
2024-03-04T05:49:13.718Z,61.01
2024-03-04T05:51:46.794Z,61.76
2024-03-04T05:54:19.929Z,61.78
2024-03-04T05:56:53.317Z,61.23
2024-03-04T05:59:28.164Z,61.09
2024-03-04T06:02:00.870Z,61.46
2024-03-04T06:04:36.995Z,61.39
2024-03-04T06:07:10.719Z,61.51
2024-03-04T06:09:44.668Z,61.13
2024-03-04T06:12:17.650Z,61.14
2024-03-04T06:14:52.189Z,61.08
2024-03-04T06:17:24.830Z,60.30
2024-03-04T06:19:58.058Z,60.71
2024-03-04T06:22:33.214Z,60.70
2024-03-04T06:25:07.997Z,59.82
2024-03-04T06:27:41.529Z,59.74
2024-03-04T06:30:17.284Z,60.58
2024-03-04T06:32:50.531Z,60.48
2024-03-04T06:35:23.256Z,60.71
2024-03-04T06:37:56.686Z,59.96
2024-03-04T06:40:29.481Z,59.97
2024-03-04T06:43:02.707Z,60.50
2024-03-04T06:45:39.482Z,59.68
2024-03-04T06:48:12.350Z,59.69
2024-03-04T06:50:45.319Z,60.01
2024-03-04T06:53:18.451Z,59.73
2024-03-04T06:55:51.258Z,59.72
2024-03-04T06:58:24.767Z,59.85
2024-03-04T07:00:59.745Z,59.72
2024-03-04T07:03:32.380Z,59.85
2024-03-04T07:06:05.824Z,59.58
2024-03-04T07:08:38.640Z,59.63
2024-03-04T07:11:12.613Z,58.91
2024-03-04T07:13:45.691Z,58.84
2024-03-04T07:16:20.017Z,59.60
2024-03-04T07:18:53.990Z,59.19
2024-03-04T07:21:26.761Z,59.73
2024-03-04T07:23:59.975Z,59.62
2024-03-04T07:26:32.701Z,59.15
2024-03-04T07:29:10.054Z,59.31
2024-03-04T07:31:50.816Z,59.15
2024-03-04T07:34:27.670Z,58.57
2024-03-04T07:37:01.179Z,59.13
2024-03-04T07:39:33.778Z,59.29
2024-03-04T07:42:07.613Z,58.86
2024-03-04T07:44:43.926Z,59.41
2024-03-04T07:47:17.925Z,58.76
2024-03-04T07:49:50.814Z,59.29
2024-03-04T07:52:26.598Z,59.32
2024-03-04T07:54:59.558Z,59.57
2024-03-04T07:57:32.443Z,58.96
2024-03-04T08:00:10.271Z,58.89
2024-03-04T08:02:45.064Z,59.06
2024-03-04T08:05:18.289Z,58.32
2024-03-04T08:07:50.942Z,59.05
2024-03-04T08:10:23.877Z,59.22
2024-03-04T08:12:57.156Z,58.71
2024-03-04T08:15:30.519Z,58.06
2024-03-04T08:18:05.354Z,58.94
2024-03-04T08:20:38.632Z,59.32
2024-03-04T08:23:11.759Z,59.35
2024-03-04T08:25:44.478Z,58.01
2024-03-04T08:28:24.172Z,57.88
2024-03-04T08:31:06.178Z,58.62
2024-03-04T08:33:40.908Z,58.50
2024-03-04T08:36:13.615Z,58.80
2024-03-04T08:38:46.500Z,58.41
2024-03-04T08:41:19.791Z,58.64
2024-03-04T08:43:53.226Z,58.32
2024-03-04T08:46:27.870Z,58.64
2024-03-04T08:49:02.266Z,58.67
2024-03-04T08:51:35.001Z,58.36
2024-03-04T08:54:08.376Z,57.96
2024-03-04T08:56:44.312Z,58.04
2024-03-04T08:59:18.596Z,57.68
2024-03-04T09:01:51.183Z,57.79
2024-03-04T09:04:25.837Z,58.14
2024-03-04T09:06:58.504Z,57.81
2024-03-04T09:09:35.909Z,57.35
2024-03-04T09:12:09.687Z,57.29
2024-03-04T09:14:43.128Z,57.11
2024-03-04T09:17:16.007Z,57.38
2024-03-04T09:19:50.352Z,57.51
2024-03-04T09:22:22.989Z,57.04
2024-03-04T09:24:56.351Z,56.90
2024-03-04T09:27:34.288Z,56.62
2024-03-04T09:30:10.259Z,56.41
2024-03-04T09:32:44.675Z,56.95
2024-03-04T09:35:19.234Z,56.55
2024-03-04T09:37:52.190Z,56.79
2024-03-04T09:40:26.683Z,56.62
2024-03-04T09:43:00.088Z,56.79
2024-03-04T09:45:34.144Z,56.76
2024-03-04T09:48:13.088Z,56.56
2024-03-04T09:50:48.965Z,56.70
2024-03-04T09:53:22.842Z,56.43
2024-03-04T09:55:57.011Z,56.45
2024-03-04T09:58:30.588Z,56.48
2024-03-04T10:01:04.866Z,56.61
2024-03-04T10:03:38.012Z,56.22
2024-03-04T10:06:13.252Z,56.63
2024-03-04T10:08:46.743Z,56.17
2024-03-04T10:11:20.120Z,55.79
2024-03-04T10:13:54.471Z,56.11
2024-03-04T10:16:28.864Z,55.98
2024-03-04T10:19:07.126Z,56.00
2024-03-04T10:21:41.643Z,55.67
2024-03-04T10:24:15.725Z,55.92
2024-03-04T10:26:48.447Z,56.01
2024-03-04T10:29:24.439Z,56.25
2024-03-04T10:31:57.419Z,55.70
2024-03-04T10:34:30.720Z,55.43
2024-03-04T10:37:06.209Z,55.89
2024-03-04T10:39:40.269Z,55.79
2024-03-04T10:42:13.615Z,55.14
2024-03-04T10:44:48.377Z,55.26
2024-03-04T10:47:22.219Z,54.96
2024-03-04T10:49:56.480Z,55.55
2024-03-04T10:52:30.772Z,55.43
2024-03-04T10:55:04.701Z,55.38
2024-03-04T10:57:42.905Z,55.24
2024-03-04T11:00:27.442Z,55.09
2024-03-04T11:03:14.383Z,55.33
2024-03-04T11:05:52.052Z,54.80
2024-03-04T11:08:31.926Z,55.40
2024-03-04T11:11:10.512Z,55.43
2024-03-04T11:13:51.249Z,54.88
2024-03-04T11:16:29.109Z,54.07
2024-03-04T11:19:07.822Z,54.38
2024-03-04T11:21:42.018Z,53.79
2024-03-04T11:24:18.345Z,54.69
2024-03-04T11:26:52.657Z,54.51
2024-03-04T11:29:26.859Z,54.67
2024-03-04T11:32:01.077Z,54.32
2024-03-04T11:34:58.875Z,55.10
2024-03-04T11:37:32.710Z,53.97
2024-03-04T11:40:14.760Z,53.87
2024-03-04T11:42:48.417Z,54.04
2024-03-04T11:45:24.282Z,54.58
2024-03-04T11:47:57.556Z,54.80
2024-03-04T11:50:48.310Z,54.29
2024-03-04T11:53:28.186Z,54.95
2024-03-04T11:56:02.337Z,54.94
2024-03-04T11:58:58.755Z,54.67
2024-03-04T12:01:32.223Z,54.31
2024-03-04T12:04:05.169Z,55.02
2024-03-04T12:06:39.431Z,53.85
2024-03-04T12:09:36.827Z,53.93
2024-03-04T12:12:07.503Z,54.53
2024-03-04T12:14:40.205Z,54.06
2024-03-04T12:17:14.113Z,53.97
2024-03-04T12:19:53.921Z,54.62
2024-03-04T12:22:33.125Z,54.07
2024-03-04T12:25:12.333Z,53.54
2024-03-04T12:27:49.071Z,53.80
2024-03-04T12:30:24.065Z,54.35
2024-03-04T12:33:03.076Z,53.88
2024-03-04T12:35:35.719Z,54.11
2024-03-04T12:38:11.593Z,54.22
2024-03-04T12:40:44.701Z,53.78
2024-03-04T12:43:19.661Z,53.53
2024-03-04T12:45:53.490Z,53.98
2024-03-04T12:48:26.767Z,54.30
2024-03-04T12:51:00.675Z,53.69
2024-03-04T12:53:34.784Z,54.00
2024-03-04T12:56:08.271Z,53.63
2024-03-04T12:58:43.461Z,53.80
2024-03-04T13:01:20.439Z,54.27
2024-03-04T13:03:54.274Z,54.19
2024-03-04T13:06:27.208Z,54.18
2024-03-04T13:09:00.546Z,53.65
2024-03-04T13:11:33.312Z,53.17
2024-03-04T13:14:07.583Z,53.98
2024-03-04T13:16:40.412Z,54.22
2024-03-04T13:19:16.974Z,54.02
2024-03-04T13:21:50.819Z,54.28
2024-03-04T13:24:23.581Z,54.21
2024-03-04T13:26:56.949Z,53.77
2024-03-04T13:29:33.053Z,53.50
2024-03-04T13:32:06.071Z,53.52
2024-03-04T13:34:39.047Z,53.99
2024-03-04T13:37:13.564Z,54.45
2024-03-04T13:39:46.457Z,54.20
2024-03-04T13:42:20.547Z,54.42
2024-03-04T13:44:55.124Z,53.96
2024-03-04T13:47:28.038Z,54.30
2024-03-04T13:50:01.578Z,53.90
2024-03-04T13:52:36.694Z,53.90
2024-03-04T13:55:10.286Z,54.10
2024-03-04T13:57:43.068Z,54.64
2024-03-04T14:00:17.949Z,54.16
2024-03-04T14:02:53.253Z,54.72
2024-03-04T14:05:26.302Z,54.54
2024-03-04T14:07:59.055Z,54.26
2024-03-04T14:10:32.071Z,54.69
2024-03-04T14:13:05.152Z,54.65
2024-03-04T14:15:39.389Z,54.20
2024-03-04T14:18:12.904Z,54.42
2024-03-04T14:20:48.904Z,54.74
2024-03-04T14:23:23.808Z,54.86
2024-03-04T14:25:57.057Z,54.01
2024-03-04T14:28:31.217Z,54.63
2024-03-04T14:31:07.262Z,54.38
2024-03-04T14:33:40.299Z,54.46
2024-03-04T14:36:13.132Z,54.63
2024-03-04T14:38:45.997Z,54.82
2024-03-04T14:41:20.073Z,55.00
2024-03-04T14:43:54.207Z,55.02
2024-03-04T14:46:28.909Z,55.33
2024-03-04T14:49:01.521Z,55.35
2024-03-04T14:51:35.277Z,55.59
2024-03-04T14:54:07.963Z,55.74
2024-03-04T14:56:41.454Z,55.85
2024-03-04T14:59:14.681Z,55.57
2024-03-04T15:01:52.613Z,55.54
2024-03-04T15:04:25.669Z,55.47
2024-03-04T15:06:59.073Z,55.55
2024-03-04T15:09:33.915Z,55.36
2024-03-04T15:12:07.889Z,55.61
2024-03-04T15:14:41.372Z,55.88
2024-03-04T15:17:16.004Z,55.78
2024-03-04T15:19:49.966Z,55.86
2024-03-04T15:22:23.077Z,55.89
2024-03-04T15:24:56.147Z,55.61
2024-03-04T15:27:29.344Z,55.90
2024-03-04T15:30:02.650Z,55.79
2024-03-04T15:32:39.918Z,56.22
2024-03-04T15:35:17.278Z,56.49
2024-03-04T15:37:49.913Z,56.24
2024-03-04T15:40:22.866Z,56.44
2024-03-04T15:42:58.285Z,56.58
2024-03-04T15:45:31.251Z,56.52
2024-03-04T15:48:07.657Z,56.27
2024-03-04T15:50:40.890Z,56.69
2024-03-04T15:53:13.454Z,56.46
2024-03-04T15:55:46.940Z,56.57
2024-03-04T15:58:26.597Z,57.12
2024-03-04T16:00:59.259Z,57.01
2024-03-04T16:03:34.889Z,56.86
2024-03-04T16:06:08.073Z,56.50
2024-03-04T16:08:41.674Z,57.20
2024-03-04T16:11:14.547Z,57.04
2024-03-04T16:13:47.561Z,57.05
2024-03-04T16:16:20.743Z,56.63
2024-03-04T16:18:54.905Z,57.10
2024-03-04T16:21:29.444Z,57.09
2024-03-04T16:24:03.761Z,57.08
2024-03-04T16:26:36.385Z,57.25
2024-03-04T16:29:09.442Z,57.54
2024-03-04T16:31:42.479Z,57.59
2024-03-04T16:34:16.894Z,57.44
2024-03-04T16:36:49.533Z,57.33
2024-03-04T16:39:24.089Z,57.16
2024-03-04T16:41:57.598Z,57.20
2024-03-04T16:44:30.734Z,57.23
2024-03-04T16:47:03.859Z,57.13
2024-03-04T16:49:40.106Z,57.52
2024-03-04T16:52:13.087Z,57.67
2024-03-04T16:54:46.461Z,57.58
2024-03-04T16:57:19.754Z,57.80
2024-03-04T16:59:53.445Z,57.10
2024-03-04T17:02:28.827Z,57.51
2024-03-04T17:05:03.382Z,57.16
2024-03-04T17:07:55.629Z,57.08
2024-03-04T17:10:28.443Z,57.07
2024-03-04T17:13:01.499Z,56.81
2024-03-04T17:15:38.879Z,57.42
2024-03-04T17:18:19.582Z,57.08
2024-03-04T17:20:57.054Z,57.24
2024-03-04T17:23:30.344Z,57.19
2024-03-04T17:26:03.608Z,57.26
2024-03-04T17:28:36.599Z,57.13
2024-03-04T17:31:09.668Z,57.67
2024-03-04T17:33:42.807Z,57.16
2024-03-04T17:36:17.288Z,57.61
2024-03-04T17:38:50.004Z,57.26
2024-03-04T17:41:23.026Z,57.52
2024-03-04T17:43:56.019Z,57.79
2024-03-04T17:46:29.266Z,57.39
2024-03-04T17:49:02.167Z,57.64
2024-03-04T17:51:41.624Z,57.38
2024-03-04T17:54:14.181Z,57.59
2024-03-04T17:56:47.450Z,57.76
2024-03-04T17:59:20.524Z,57.63
2024-03-04T18:01:54.274Z,57.72
2024-03-04T18:04:29.239Z,57.91
2024-03-04T18:07:03.545Z,58.12
2024-03-04T18:09:36.621Z,58.03
2024-03-04T18:12:09.804Z,57.99
2024-03-04T18:14:44.628Z,57.95
2024-03-04T18:17:18.846Z,58.06
2024-03-04T18:19:51.833Z,58.27
2024-03-04T18:22:27.344Z,58.33
2024-03-04T18:25:00.654Z,58.61
2024-03-04T18:27:33.612Z,57.96
2024-03-04T18:30:07.659Z,58.08
2024-03-04T18:32:41.462Z,58.89
2024-03-04T18:35:14.441Z,58.74
2024-03-04T18:37:49.272Z,58.57
2024-03-04T18:40:22.081Z,58.82
2024-03-04T18:42:55.210Z,58.50
2024-03-04T18:45:28.366Z,58.09
2024-03-04T18:48:01.406Z,59.09
2024-03-04T18:50:34.559Z,58.78
2024-03-04T18:53:09.828Z,59.28
2024-03-04T18:55:43.119Z,59.20
2024-03-04T18:58:16.370Z,59.08
2024-03-04T19:00:49.055Z,59.95
2024-03-04T19:03:22.193Z,59.79
2024-03-04T19:05:55.475Z,59.80
2024-03-04T19:08:29.686Z,59.48
2024-03-04T19:11:08.768Z,59.73
2024-03-04T19:13:48.593Z,59.66
2024-03-04T19:16:22.947Z,60.23
2024-03-04T19:18:56.803Z,60.32
2024-03-04T19:21:29.486Z,60.11
2024-03-04T19:24:04.104Z,60.25
2024-03-04T19:26:38.056Z,59.74
2024-03-04T19:29:10.941Z,59.72
2024-03-04T19:31:43.974Z,59.96
2024-03-04T19:34:18.151Z,60.27
2024-03-04T19:36:51.047Z,61.05
2024-03-04T19:39:25.833Z,61.17
2024-03-04T19:41:59.658Z,60.96
2024-03-04T19:44:34.366Z,61.82
2024-03-04T19:47:07.120Z,62.04
2024-03-04T19:49:40.074Z,61.57
2024-03-04T19:52:15.975Z,61.74
2024-03-04T19:54:51.896Z,61.77
2024-03-04T19:57:29.891Z,61.19
2024-03-04T20:00:11.124Z,61.59
2024-03-04T20:02:43.926Z,61.07
2024-03-04T20:05:19.431Z,60.87
2024-03-04T20:07:52.057Z,61.80
2024-03-04T20:10:26.410Z,61.07
2024-03-04T20:12:59.545Z,61.29
2024-03-04T20:15:32.553Z,61.99
2024-03-04T20:18:06.103Z,61.53
2024-03-04T20:20:39.230Z,61.43
2024-03-04T20:23:13.058Z,61.34
2024-03-04T20:25:47.737Z,61.17
2024-03-04T20:28:20.785Z,61.60
2024-03-04T20:30:53.561Z,61.63
2024-03-04T20:33:26.885Z,61.48
2024-03-04T20:36:01.581Z,62.41
2024-03-04T20:38:34.713Z,61.80
2024-03-04T20:41:11.322Z,62.44
2024-03-04T20:43:44.525Z,62.24
2024-03-04T20:46:17.515Z,62.02
2024-03-04T20:48:54.313Z,62.56
2024-03-04T20:51:31.057Z,62.52
2024-03-04T20:57:09.437Z,61.78
2024-03-04T20:59:42.141Z,62.14
2024-03-04T21:02:22.299Z,62.08
2024-03-04T21:04:55.876Z,61.75
2024-03-04T21:07:29.053Z,62.56
2024-03-04T21:10:04.357Z,61.84
2024-03-04T21:12:41.276Z,61.60
2024-03-04T21:15:23.785Z,61.81
2024-03-04T21:17:59.267Z,61.93
2024-03-04T21:20:32.960Z,61.72
2024-03-04T21:23:05.711Z,62.48
2024-03-04T21:25:39.085Z,62.88
2024-03-04T21:28:14.836Z,62.34
2024-03-04T21:30:48.169Z,62.95
2024-03-04T21:33:21.070Z,63.22
2024-03-04T21:35:54.488Z,63.13
2024-03-04T21:38:27.173Z,63.53
2024-03-04T21:41:00.676Z,62.85
2024-03-04T21:43:34.868Z,62.89
2024-03-04T21:46:10.672Z,63.91
2024-03-04T21:48:44.309Z,63.05
2024-03-04T21:51:17.734Z,64.37
2024-03-04T21:53:50.521Z,63.77
2024-03-04T21:56:23.499Z,63.21
2024-03-04T21:58:57.846Z,63.65
2024-03-04T22:01:31.385Z,64.22
2024-03-04T22:04:06.173Z,63.62
2024-03-04T22:06:39.236Z,63.38
2024-03-04T22:09:19.069Z,63.46
2024-03-04T22:11:52.893Z,63.21
2024-03-04T22:14:27.250Z,63.59
2024-03-04T22:17:00.577Z,63.29
2024-03-04T22:19:33.949Z,62.87
2024-03-04T22:22:07.501Z,63.58
2024-03-04T22:24:40.311Z,63.29
2024-03-04T22:27:14.476Z,64.50
2024-03-04T22:29:48.624Z,63.65
2024-03-04T22:32:21.888Z,64.35
2024-03-04T22:34:55.238Z,64.26
2024-03-04T22:37:27.943Z,63.63
2024-03-04T22:40:00.889Z,63.37
2024-03-04T22:42:33.751Z,64.24
2024-03-04T22:45:09.638Z,63.74
2024-03-04T22:47:42.264Z,64.16
2024-03-04T22:50:15.649Z,64.78
2024-03-04T22:52:48.368Z,64.68
2024-03-04T22:55:21.961Z,64.94
2024-03-04T22:57:54.797Z,64.82
2024-03-04T23:00:52.582Z,64.25
2024-03-04T23:03:27.132Z,64.55
2024-03-04T23:06:00.530Z,64.46
2024-03-04T23:08:33.571Z,64.88
2024-03-04T23:11:06.892Z,64.65
2024-03-04T23:13:44.930Z,65.17
2024-03-04T23:16:19.552Z,66.25
2024-03-04T23:18:53.512Z,65.88
2024-03-04T23:21:26.483Z,65.60
2024-03-04T23:23:59.636Z,65.28
2024-03-04T23:26:32.250Z,66.15
2024-03-04T23:29:06.272Z,65.54
2024-03-04T23:31:40.240Z,65.16
2024-03-04T23:34:13.638Z,65.71
2024-03-04T23:36:49.545Z,65.83
2024-03-04T23:39:24.594Z,64.77
2024-03-04T23:41:57.988Z,65.01
2024-03-04T23:44:32.321Z,65.53
2024-03-04T23:47:07.688Z,65.66
2024-03-04T23:49:41.040Z,65.71
2024-03-04T23:54:49.461Z,64.92
2024-03-04T23:57:23.384Z,64.87
2024-03-04T23:59:58.552Z,65.54
